createdAt,value
2022-09-14T00:00:09.899Z,6.85
2022-09-14T00:02:56.444Z,4.65
2022-09-14T00:05:42.649Z,9.15
2022-09-14T00:08:28.394Z,4.40
2022-09-14T00:11:15.247Z,6.28
2022-09-14T00:14:02.340Z,5.55
2022-09-14T00:16:48.686Z,4.07
2022-09-14T00:19:34.724Z,4.80
2022-09-14T00:22:20.710Z,7.05
2022-09-14T00:25:06.833Z,5.32
2022-09-14T00:27:54.121Z,7.20
2022-09-14T00:30:42.257Z,4.28
2022-09-14T00:33:28.138Z,5.28
2022-09-14T00:36:22.668Z,4.65
2022-09-14T00:39:09.402Z,5.20
2022-09-14T00:41:55.567Z,7.00
2022-09-14T00:44:41.366Z,7.20
2022-09-14T00:47:28.835Z,7.10
2022-09-14T00:50:14.924Z,8.90
2022-09-14T00:53:00.813Z,8.43
2022-09-14T00:55:46.887Z,6.28
2022-09-14T00:58:33.001Z,4.93
2022-09-14T01:01:19.849Z,3.35
2022-09-14T01:04:05.983Z,6.10
2022-09-14T01:07:12.928Z,7.55
2022-09-14T01:10:07.566Z,3.80
2022-09-14T01:13:08.940Z,5.55
2022-09-14T01:16:07.969Z,6.22
2022-09-14T01:18:59.109Z,5.43
2022-09-14T01:21:45.393Z,5.20
2022-09-14T01:24:42.782Z,5.43
2022-09-14T01:27:41.740Z,4.47
2022-09-14T01:30:31.934Z,6.15
2022-09-14T01:33:21.537Z,5.45
2022-09-14T01:36:08.560Z,3.53
2022-09-14T01:38:54.985Z,4.20
2022-09-14T01:41:42.260Z,3.85
2022-09-14T01:44:36.263Z,6.47
2022-09-14T01:47:50.773Z,4.72
2022-09-14T01:50:53.421Z,3.05
2022-09-14T01:53:45.779Z,4.75
2022-09-14T01:56:39.000Z,5.13
2022-09-14T01:59:27.337Z,3.15
2022-09-14T02:02:20.488Z,4.47
2022-09-14T02:05:25.034Z,2.83
2022-09-14T02:08:11.412Z,5.32
2022-09-14T02:10:58.456Z,8.55
2022-09-14T02:13:44.172Z,6.90
2022-09-14T02:16:30.486Z,9.50
2022-09-14T02:19:19.377Z,5.85
2022-09-14T02:22:09.010Z,3.63
2022-09-14T02:24:55.336Z,8.05
2022-09-14T02:27:41.173Z,4.07
2022-09-14T02:30:28.387Z,4.82
2022-09-14T02:33:23.605Z,4.72
2022-09-14T02:36:35.316Z,6.53
2022-09-14T02:39:36.830Z,5.43
2022-09-14T02:42:37.092Z,3.38
2022-09-14T02:46:01.135Z,8.65
2022-09-14T02:49:04.701Z,3.85
2022-09-14T02:51:59.933Z,5.45
2022-09-14T02:54:52.670Z,6.28
2022-09-14T02:58:00.761Z,5.05
2022-09-14T03:00:49.182Z,6.15
2022-09-14T03:03:35.875Z,4.75
2022-09-14T03:06:22.160Z,4.45
2022-09-14T03:09:08.121Z,11.50
2022-09-14T03:11:54.161Z,5.13
2022-09-14T03:14:39.997Z,4.72
2022-09-14T03:17:26.014Z,2.78
2022-09-14T03:20:11.805Z,4.43
2022-09-14T03:22:59.271Z,4.10
2022-09-14T03:25:45.560Z,5.35
2022-09-14T03:28:31.250Z,5.45
2022-09-14T03:31:17.369Z,4.50
2022-09-14T03:34:03.755Z,7.68
2022-09-14T03:36:49.461Z,6.28
2022-09-14T03:39:35.504Z,7.38
2022-09-14T03:42:21.266Z,6.75
2022-09-14T03:45:07.547Z,5.03
2022-09-14T03:47:53.332Z,3.70
2022-09-14T03:50:39.183Z,6.78
2022-09-14T03:53:25.023Z,6.97
2022-09-14T03:56:15.585Z,8.13
2022-09-14T03:59:01.750Z,5.88
2022-09-14T04:01:48.147Z,6.75
2022-09-14T04:04:33.977Z,7.13
2022-09-14T04:07:20.244Z,7.55
2022-09-14T04:10:07.176Z,4.90
2022-09-14T04:12:53.161Z,7.70
2022-09-14T04:15:39.092Z,3.83
2022-09-14T04:18:25.788Z,3.50
2022-09-14T04:21:15.295Z,6.22
2022-09-14T04:24:14.560Z,4.43
2022-09-14T04:27:01.972Z,6.22
2022-09-14T04:29:50.284Z,7.78
2022-09-14T04:32:36.606Z,5.60
2022-09-14T04:35:22.426Z,6.07
2022-09-14T04:38:08.402Z,8.38
2022-09-14T04:40:54.122Z,5.32
2022-09-14T04:43:40.503Z,8.50
2022-09-14T04:46:37.226Z,6.35
2022-09-14T04:49:24.074Z,8.02
2022-09-14T04:52:09.982Z,4.35
2022-09-14T04:54:55.806Z,5.50
2022-09-14T04:57:41.709Z,8.35
2022-09-14T05:00:27.776Z,6.03
2022-09-14T05:03:13.504Z,7.22
2022-09-14T05:06:11.085Z,10.90
2022-09-14T05:08:59.165Z,7.45
2022-09-14T05:11:46.017Z,8.50
2022-09-14T05:14:32.196Z,9.07
2022-09-14T05:17:17.948Z,6.57
2022-09-14T05:20:04.661Z,11.10
2022-09-14T05:22:51.277Z,7.78
2022-09-14T05:25:36.970Z,10.20
2022-09-14T05:28:22.846Z,9.13
2022-09-14T05:31:10.676Z,7.72
2022-09-14T05:33:56.610Z,11.70
2022-09-14T05:36:43.068Z,8.45
2022-09-14T05:39:29.293Z,8.70
2022-09-14T05:42:15.564Z,12.65
2022-09-14T05:45:01.730Z,16.55
2022-09-14T05:47:47.642Z,11.60
2022-09-14T05:50:34.118Z,13.43
2022-09-14T05:53:20.013Z,11.68
2022-09-14T05:56:08.057Z,11.52
2022-09-14T05:58:56.044Z,14.75
2022-09-14T06:01:42.108Z,8.90
2022-09-14T06:04:27.956Z,11.82
2022-09-14T06:07:18.738Z,10.25
2022-09-14T06:10:05.814Z,26.05
2022-09-14T06:12:55.395Z,12.82
2022-09-14T06:15:41.598Z,8.75
2022-09-14T06:18:31.012Z,7.35
2022-09-14T06:21:20.031Z,8.32
2022-09-14T06:24:06.315Z,12.07
2022-09-14T06:26:52.114Z,13.95
2022-09-14T06:29:38.082Z,13.70
2022-09-14T06:32:23.837Z,19.30
2022-09-14T06:35:12.413Z,17.50
2022-09-14T06:37:58.867Z,11.77
2022-09-14T06:40:52.941Z,14.60
2022-09-14T06:43:40.472Z,14.90
2022-09-14T06:46:28.552Z,12.35
2022-09-14T06:49:20.817Z,14.40
2022-09-14T06:52:06.487Z,8.43
2022-09-14T06:54:52.438Z,21.30
2022-09-14T06:57:42.789Z,12.20
2022-09-14T07:00:28.809Z,11.95
2022-09-14T07:03:15.030Z,13.43
2022-09-14T07:06:06.580Z,14.38
2022-09-14T07:08:53.463Z,9.15
2022-09-14T07:11:40.130Z,11.77
2022-09-14T07:14:29.225Z,9.18
2022-09-14T07:17:17.776Z,22.67
2022-09-14T07:20:05.078Z,27.70
2022-09-14T07:22:50.828Z,27.13
2022-09-14T07:25:36.721Z,21.80
2022-09-14T07:28:22.652Z,14.45
2022-09-14T07:31:44.991Z,14.65
2022-09-14T07:34:30.879Z,11.98
2022-09-14T07:37:16.921Z,15.73
2022-09-14T07:40:02.908Z,8.60
2022-09-14T07:42:56.861Z,11.10
2022-09-14T07:45:43.704Z,16.98
2022-09-14T07:48:30.257Z,13.57
2022-09-14T07:51:16.338Z,14.18
2022-09-14T07:54:02.852Z,10.50
2022-09-14T07:56:50.581Z,10.60
2022-09-14T07:59:37.524Z,14.05
2022-09-14T08:02:24.527Z,9.02
2022-09-14T08:05:11.194Z,14.77
2022-09-14T08:07:57.000Z,13.25
2022-09-14T08:10:42.926Z,14.35
2022-09-14T08:13:28.800Z,10.73
2022-09-14T08:16:15.392Z,9.82
2022-09-14T08:19:04.703Z,11.13
2022-09-14T08:21:51.345Z,10.20
2022-09-14T08:24:37.298Z,15.30
2022-09-14T08:27:23.216Z,14.98
2022-09-14T08:30:10.256Z,16.23
2022-09-14T08:48:03.994Z,8.88
2022-09-14T09:04:22.127Z,9.00
2022-09-14T09:07:29.945Z,6.97
2022-09-14T09:10:16.260Z,6.32
2022-09-14T09:13:04.878Z,7.45
2022-09-14T09:15:55.850Z,13.98
2022-09-14T09:18:55.283Z,10.00
2022-09-14T09:21:46.760Z,12.15
2022-09-14T09:24:45.833Z,6.15
2022-09-14T09:27:31.741Z,11.48
2022-09-14T09:30:17.782Z,6.70
2022-09-14T09:33:04.604Z,10.65
2022-09-14T09:36:14.373Z,11.88
2022-09-14T09:39:04.436Z,13.40
2022-09-14T09:42:20.573Z,7.55
2022-09-14T09:45:07.112Z,8.70
2022-09-14T09:47:53.329Z,8.38
2022-09-14T09:50:48.145Z,7.00
2022-09-14T09:53:35.732Z,10.10
2022-09-14T09:56:33.443Z,14.68
2022-09-14T09:59:42.355Z,14.07
2022-09-14T10:02:32.279Z,14.15
2022-09-14T10:05:18.237Z,6.95
2022-09-14T10:08:15.100Z,8.70
2022-09-14T10:11:03.018Z,5.32
2022-09-14T10:13:48.935Z,5.28
2022-09-14T10:16:39.432Z,6.82
2022-09-14T10:19:28.160Z,7.85
2022-09-14T10:22:27.989Z,8.90
2022-09-14T10:25:14.483Z,6.65
2022-09-14T10:28:01.087Z,4.28
2022-09-14T10:30:51.561Z,6.60
2022-09-14T10:33:38.068Z,9.50
2022-09-14T10:36:47.763Z,5.47
2022-09-14T10:39:46.338Z,7.38
2022-09-14T10:42:39.912Z,9.02
2022-09-14T10:45:32.957Z,6.13
2022-09-14T10:48:25.300Z,8.43
2022-09-14T10:54:08.549Z,9.63
2022-09-14T10:57:11.340Z,8.90
2022-09-14T11:00:12.527Z,3.80
2022-09-14T11:03:04.482Z,6.68
2022-09-14T11:08:46.495Z,6.57
2022-09-14T11:12:14.136Z,10.13
2022-09-14T11:15:41.481Z,3.72
2022-09-14T11:18:38.782Z,5.95
2022-09-14T11:21:54.088Z,14.55
2022-09-14T11:24:53.605Z,6.22
2022-09-14T11:27:52.771Z,20.45
2022-09-14T11:31:21.235Z,6.25
2022-09-14T11:34:49.296Z,6.65
2022-09-14T11:37:52.934Z,8.35
2022-09-14T11:40:51.055Z,5.30
2022-09-14T11:43:50.955Z,2.42
2022-09-14T11:46:41.759Z,4.55
2022-09-14T11:49:34.411Z,10.75
2022-09-14T11:52:23.249Z,6.07
2022-09-14T11:55:12.102Z,7.22
2022-09-14T11:57:59.135Z,12.02
2022-09-14T12:00:57.198Z,8.18
2022-09-14T12:03:59.920Z,9.52
2022-09-14T12:06:48.761Z,5.63
2022-09-14T12:09:40.057Z,5.22
2022-09-14T12:12:31.694Z,7.13
2022-09-14T12:15:21.630Z,14.75
2022-09-14T12:18:07.493Z,4.80
2022-09-14T12:21:00.958Z,4.45
2022-09-14T12:23:52.231Z,9.65
2022-09-14T12:26:38.721Z,9.40
2022-09-14T12:29:29.192Z,6.72
2022-09-14T12:32:29.269Z,7.88
2022-09-14T12:35:40.354Z,8.38
2022-09-14T12:38:29.725Z,11.93
2022-09-14T12:41:15.447Z,11.98
2022-09-14T12:44:01.516Z,10.95
2022-09-14T12:46:47.826Z,10.80
2022-09-14T12:49:35.584Z,6.57
2022-09-14T12:52:49.413Z,10.63
2022-09-14T12:55:53.355Z,6.25
2022-09-14T12:58:52.084Z,14.43
2022-09-14T13:01:56.956Z,7.43
2022-09-14T13:04:45.634Z,14.23
2022-09-14T13:07:36.165Z,12.80
2022-09-14T13:10:26.624Z,15.98
2022-09-14T13:13:22.907Z,6.78
2022-09-14T13:16:09.245Z,12.13
2022-09-14T13:19:01.859Z,15.93
2022-09-14T13:24:34.827Z,20.17
2022-09-14T13:27:35.450Z,12.93
2022-09-14T13:30:23.718Z,13.75
2022-09-14T13:33:17.299Z,16.55
2022-09-14T13:36:04.378Z,17.35
2022-09-14T13:38:50.618Z,17.90
2022-09-14T13:41:43.025Z,10.68
2022-09-14T13:47:22.410Z,14.48
2022-09-14T13:50:09.019Z,9.75
2022-09-14T13:53:02.468Z,11.10
2022-09-14T13:55:49.948Z,13.40
2022-09-14T13:58:35.955Z,10.82
2022-09-14T14:01:27.310Z,20.45
2022-09-14T14:04:36.208Z,16.67
2022-09-14T14:07:27.617Z,11.25
2022-09-14T14:10:34.229Z,21.25
2022-09-14T14:13:32.549Z,15.02
2022-09-14T14:16:22.674Z,7.78
2022-09-14T14:19:29.882Z,16.15
2022-09-14T14:22:16.137Z,10.43
2022-09-14T14:25:18.613Z,8.27
2022-09-14T14:28:19.790Z,10.93
2022-09-14T14:31:09.171Z,12.27
2022-09-14T14:33:56.467Z,15.90
2022-09-14T14:36:42.442Z,13.32
2022-09-14T14:39:28.485Z,12.75
2022-09-14T14:42:16.282Z,14.57
2022-09-14T14:45:02.397Z,13.32
2022-09-14T14:47:50.669Z,11.52
2022-09-14T14:50:36.994Z,12.43
2022-09-14T14:53:26.013Z,10.02
2022-09-14T14:56:14.904Z,14.45
2022-09-14T14:59:02.380Z,13.05
2022-09-14T15:01:50.059Z,9.75
2022-09-14T15:04:36.300Z,10.13
2022-09-14T15:07:22.137Z,12.73
2022-09-14T15:10:08.984Z,13.32
2022-09-14T15:12:54.912Z,14.82
2022-09-14T15:15:43.177Z,12.30
2022-09-14T15:18:29.289Z,17.67
2022-09-14T15:21:15.102Z,8.20
2022-09-14T15:24:01.455Z,12.70
2022-09-14T15:26:47.449Z,15.05
2022-09-14T15:29:33.721Z,12.38
2022-09-14T15:32:19.829Z,17.77
2022-09-14T15:35:07.747Z,10.18
2022-09-14T15:37:54.055Z,12.10
2022-09-14T15:40:39.988Z,17.90
2022-09-14T15:43:25.907Z,21.60
2022-09-14T15:46:11.910Z,11.00
2022-09-14T15:48:58.132Z,15.82
2022-09-14T15:51:45.287Z,18.65
2022-09-14T15:54:33.574Z,11.90
2022-09-14T15:57:19.748Z,25.05
2022-09-14T16:00:08.617Z,18.38
2022-09-14T16:03:03.839Z,17.23
2022-09-14T16:05:49.897Z,18.52
2022-09-14T16:08:37.261Z,15.82
2022-09-14T16:11:23.909Z,12.73
2022-09-14T16:14:11.024Z,16.75
2022-09-14T16:16:56.999Z,13.80
2022-09-14T16:19:44.896Z,23.05
2022-09-14T16:22:32.534Z,24.35
2022-09-14T16:25:18.729Z,17.27
2022-09-14T16:28:04.539Z,20.20
2022-09-14T16:30:50.449Z,19.55
2022-09-14T16:33:41.584Z,13.82
2022-09-14T16:36:34.735Z,13.93
2022-09-14T16:39:23.270Z,12.48
2022-09-14T16:42:09.223Z,20.75
2022-09-14T16:44:55.403Z,14.93
2022-09-14T16:47:41.689Z,19.75
2022-09-14T16:50:27.658Z,26.75
2022-09-14T16:53:13.653Z,17.88
2022-09-14T16:56:22.620Z,19.60
2022-09-14T16:59:08.635Z,21.85
2022-09-14T17:01:55.627Z,23.63
2022-09-14T17:04:41.760Z,36.15
2022-09-14T17:07:27.599Z,27.25
2022-09-14T17:10:13.454Z,42.63
2022-09-14T17:12:59.466Z,46.80
2022-09-14T17:15:45.341Z,42.03
2022-09-14T17:18:31.785Z,32.65
2022-09-14T17:21:23.666Z,45.50
2022-09-14T17:24:09.721Z,28.38
2022-09-14T17:26:55.687Z,26.10
2022-09-14T17:29:41.811Z,30.88
2022-09-14T17:32:27.973Z,21.98
2022-09-14T17:35:13.996Z,19.50
2022-09-14T17:38:00.036Z,24.95
2022-09-14T17:40:45.887Z,14.45
2022-09-14T17:43:33.526Z,11.73
2022-09-14T17:46:21.703Z,22.35
2022-09-14T17:49:09.605Z,39.85
2022-09-14T17:51:55.540Z,32.38
2022-09-14T17:54:42.071Z,29.63
2022-09-14T17:57:28.084Z,29.40
2022-09-14T18:00:15.068Z,32.13
2022-09-14T18:03:01.296Z,24.02
2022-09-14T18:05:55.025Z,32.58
2022-09-14T18:08:41.359Z,16.23
2022-09-14T18:11:28.279Z,18.20
2022-09-14T18:14:14.771Z,19.75
2022-09-14T18:17:00.668Z,10.30
2022-09-14T18:19:46.534Z,10.07
2022-09-14T18:22:32.580Z,14.98
2022-09-14T18:25:18.377Z,15.73
2022-09-14T18:28:04.589Z,22.13
2022-09-14T18:30:53.145Z,28.55
2022-09-14T18:33:39.447Z,45.22
2022-09-14T18:36:28.958Z,29.70
2022-09-14T18:39:15.897Z,24.92
2022-09-14T18:42:02.274Z,20.80
2022-09-14T18:44:53.839Z,18.85
2022-09-14T18:47:40.226Z,16.80
2022-09-14T18:50:26.312Z,13.40
2022-09-14T18:53:13.239Z,12.23
2022-09-14T18:56:07.529Z,13.13
2022-09-14T18:58:53.420Z,15.07
2022-09-14T19:01:41.157Z,8.73
2022-09-14T19:04:27.605Z,14.38
2022-09-14T19:07:13.453Z,19.75
2022-09-14T19:09:59.925Z,13.32
2022-09-14T19:12:46.249Z,27.50
2022-09-14T19:15:33.785Z,26.98
2022-09-14T19:18:19.948Z,20.98
2022-09-14T19:21:23.490Z,17.73
2022-09-14T19:24:12.736Z,14.73
2022-09-14T19:26:58.844Z,9.68
2022-09-14T19:29:45.244Z,15.20
2022-09-14T19:32:31.002Z,13.38
2022-09-14T19:35:16.945Z,15.35
2022-09-14T19:38:03.258Z,19.55
2022-09-14T19:40:52.822Z,18.70
2022-09-14T19:43:39.378Z,15.40
2022-09-14T19:46:25.805Z,17.88
2022-09-14T19:49:20.700Z,17.75
2022-09-14T19:52:07.225Z,17.67
2022-09-14T19:54:53.070Z,29.08
2022-09-14T19:57:39.198Z,13.45
2022-09-14T20:00:25.469Z,12.48
2022-09-14T20:03:11.421Z,15.57
2022-09-14T20:06:21.184Z,14.35
2022-09-14T20:09:10.496Z,21.67
2022-09-14T20:11:57.082Z,19.38
2022-09-14T20:14:54.323Z,21.48
2022-09-14T20:17:43.252Z,23.27
2022-09-14T20:20:32.940Z,20.42
2022-09-14T20:30:43.233Z,18.85
2022-09-14T20:33:29.932Z,18.05
2022-09-14T20:36:18.944Z,21.45
2022-09-14T20:39:05.159Z,21.70
2022-09-14T20:41:51.240Z,21.75
2022-09-14T20:44:37.313Z,19.73
2022-09-14T20:47:24.689Z,16.23
2022-09-14T20:50:10.919Z,18.17
2022-09-14T20:52:57.141Z,14.23
2022-09-14T20:55:43.257Z,19.77
2022-09-14T20:58:50.504Z,12.80
2022-09-14T21:02:05.869Z,18.00
2022-09-14T21:04:51.819Z,17.67
2022-09-14T21:08:01.490Z,22.05
2022-09-14T21:10:47.598Z,20.83
2022-09-14T21:13:34.864Z,18.08
2022-09-14T21:16:31.646Z,14.77
2022-09-14T21:19:20.691Z,18.05
2022-09-14T21:22:07.034Z,13.18
2022-09-14T21:24:57.633Z,14.48
2022-09-14T21:27:44.008Z,12.40
2022-09-14T21:30:31.346Z,15.52
2022-09-14T21:33:17.030Z,12.95
2022-09-14T21:36:07.963Z,9.82
2022-09-14T21:38:56.059Z,9.90
2022-09-14T21:41:44.008Z,12.73
2022-09-14T21:44:31.509Z,14.07
2022-09-14T21:47:18.130Z,10.55
2022-09-14T21:50:05.212Z,14.50
2022-09-14T21:52:50.995Z,14.52
2022-09-14T21:55:40.707Z,14.75
2022-09-14T21:58:27.165Z,12.15
2022-09-14T22:01:13.848Z,15.43
2022-09-14T22:04:00.309Z,10.10
2022-09-14T22:06:46.307Z,12.80
2022-09-14T22:09:32.539Z,11.45
2022-09-14T22:12:19.295Z,12.27
2022-09-14T22:15:05.628Z,12.25
2022-09-14T22:17:52.481Z,10.80
2022-09-14T22:20:38.349Z,13.05
2022-09-14T22:23:24.746Z,9.65
2022-09-14T22:26:12.057Z,8.13
2022-09-14T22:28:59.006Z,11.80
2022-09-14T22:31:45.683Z,12.05
2022-09-14T22:34:32.460Z,9.65
2022-09-14T22:37:18.693Z,9.18
2022-09-14T22:40:05.568Z,11.02
2022-09-14T22:42:52.114Z,12.02
2022-09-14T22:45:37.935Z,14.50
2022-09-14T22:48:24.462Z,7.82
2022-09-14T22:51:13.193Z,9.45
2022-09-14T22:53:59.384Z,14.45
2022-09-14T22:56:45.340Z,10.57
2022-09-14T22:59:31.240Z,12.88
2022-09-14T23:02:17.104Z,6.70
2022-09-14T23:05:03.888Z,11.02
2022-09-14T23:07:49.833Z,7.60
2022-09-14T23:10:38.887Z,12.45
2022-09-14T23:13:25.173Z,11.00
2022-09-14T23:16:16.762Z,11.48
2022-09-14T23:19:04.321Z,10.20
2022-09-14T23:21:50.598Z,13.93
2022-09-14T23:24:36.719Z,17.65
2022-09-14T23:27:22.433Z,12.50
2022-09-14T23:30:08.802Z,10.93
2022-09-14T23:32:54.702Z,12.88
2022-09-14T23:35:40.568Z,12.93
2022-09-14T23:38:26.470Z,5.68
2022-09-14T23:41:12.239Z,5.88
2022-09-14T23:43:58.253Z,5.65
2022-09-14T23:46:44.202Z,6.82
2022-09-14T23:49:29.908Z,10.05
2022-09-14T23:52:15.829Z,7.63
2022-09-14T23:55:01.500Z,8.98
2022-09-14T23:57:47.309Z,8.65
